Time;durP1;ratioP1;P1;durP2;ratioP2;P2;SDS_P1;SDS_P2;PMS_P1;PMS_P2;Temp;Humidity;BMP_temperature;BMP_pressure;BME280_temperature;BME280_humidity;BME280_pressure;Samples;Min_cycle;Max_cycle;Signal;HPM_P1;HPM_P2
2022/01/08 00:02:12;;;;;;;8.18;2.30;;;2.20;99.90;;;;;;4912025;29;20059;-48
2022/01/08 00:04:38;;;;;;;6.40;1.98;;;2.20;99.90;;;;;;4928390;29;20091;-49
2022/01/08 00:07:04;;;;;;;4.15;1.80;;;2.20;99.90;;;;;;4927051;29;20545;-48
2022/01/08 00:09:30;;;;;;;5.22;2.00;;;2.10;99.90;;;;;;4928463;29;20162;-48
2022/01/08 00:11:56;;;;;;;9.05;2.05;;;2.10;99.90;;;;;;4927157;29;20048;-47
2022/01/08 00:14:23;;;;;;;7.72;2.00;;;2.00;99.90;;;;;;4927650;29;20055;-49
2022/01/08 00:16:49;;;;;;;10.00;2.55;;;2.00;99.90;;;;;;4904084;29;20058;-47
2022/01/08 00:19:15;;;;;;;6.78;2.78;;;1.90;99.90;;;;;;4930039;29;20093;-49
2022/01/08 00:21:40;;;;;;;5.82;1.92;;;1.80;99.90;;;;;;4929166;29;20126;-48
2022/01/08 00:24:07;;;;;;;6.55;2.42;;;1.70;99.90;;;;;;4934049;29;20051;-47
2022/01/08 00:26:32;;;;;;;6.47;1.95;;;1.60;99.90;;;;;;4925108;29;20056;-48
2022/01/08 00:28:59;;;;;;;7.55;2.20;;;1.60;99.90;;;;;;4937043;29;20054;-47
2022/01/08 00:31:25;;;;;;;6.43;2.08;;;1.60;99.90;;;;;;4930192;29;20134;-47
2022/01/08 00:33:52;;;;;;;10.85;1.83;;;1.60;99.90;;;;;;4926636;29;20047;-47
2022/01/08 00:36:18;;;;;;;7.40;1.85;;;1.60;99.90;;;;;;4921763;29;20092;-47
2022/01/08 00:38:44;;;;;;;3.42;1.70;;;1.70;99.90;;;;;;4928519;29;20078;-47
2022/01/08 00:41:09;;;;;;;8.32;2.20;;;1.70;99.90;;;;;;4929994;29;20047;-50
2022/01/08 00:43:36;;;;;;;8.63;2.63;;;1.80;99.90;;;;;;4932394;29;20078;-48
2022/01/08 00:46:02;;;;;;;5.28;2.20;;;1.90;99.90;;;;;;4936573;29;20066;-48
2022/01/08 00:48:27;;;;;;;8.43;2.65;;;1.80;99.90;;;;;;4923724;29;20048;-47
2022/01/08 00:50:53;;;;;;;7.78;2.45;;;1.80;99.90;;;;;;4925352;29;20066;-47
2022/01/08 00:53:20;;;;;;;7.68;2.60;;;1.80;99.90;;;;;;4922514;29;20056;-48
2022/01/08 00:55:46;;;;;;;6.85;3.10;;;1.80;99.90;;;;;;4923390;29;20161;-50
2022/01/08 00:58:12;;;;;;;4.82;2.90;;;1.70;99.90;;;;;;4927459;29;20445;-47
2022/01/08 01:00:38;;;;;;;8.15;3.60;;;1.60;99.90;;;;;;4910135;29;20059;-47
2022/01/08 01:03:03;;;;;;;10.73;3.65;;;1.60;99.90;;;;;;4931681;29;20054;-47
2022/01/08 01:05:30;;;;;;;13.30;4.38;;;1.60;99.90;;;;;;4912204;29;20550;-47
2022/01/08 01:07:56;;;;;;;8.55;3.58;;;1.50;99.90;;;;;;4932538;29;20469;-48
2022/01/08 01:10:22;;;;;;;10.45;3.75;;;1.50;99.90;;;;;;4930723;29;20134;-48
2022/01/08 01:12:47;;;;;;;10.50;4.38;;;1.50;99.90;;;;;;4933663;29;20142;-47
2022/01/08 01:15:15;;;;;;;9.02;3.75;;;1.40;99.90;;;;;;4925721;29;20055;-47
2022/01/08 01:17:42;;;;;;;8.95;3.63;;;1.50;99.90;;;;;;4923546;29;20066;-47
2022/01/08 01:20:10;;;;;;;9.70;4.05;;;1.50;99.90;;;;;;4925391;29;20051;-47
2022/01/08 01:22:45;;;;;;;9.38;3.58;;;1.60;99.90;;;;;;4907149;29;20595;-47
2022/01/08 01:25:15;;;;;;;8.70;3.45;;;1.70;99.90;;;;;;4924461;29;20139;-47
2022/01/08 01:30:18;;;;;;;10.63;3.65;;;1.70;99.90;;;;;;4923716;29;20066;-49
2022/01/08 01:48:53;;;;;;;10.17;3.10;;;1.80;99.90;;;;;;4915358;29;20135;-48
2022/01/08 01:51:23;;;;;;;3.75;2.22;;;1.80;99.90;;;;;;4907279;29;20055;-48
2022/01/08 01:53:50;;;;;;;8.40;2.17;;;1.80;99.90;;;;;;4923515;29;20046;-48
2022/01/08 01:56:17;;;;;;;6.88;2.25;;;1.80;99.90;;;;;;4923447;29;20055;-50
2022/01/08 01:58:43;;;;;;;7.45;2.85;;;1.70;99.90;;;;;;4906207;29;20546;-49
2022/01/08 02:01:09;;;;;;;8.65;2.20;;;1.70;99.90;;;;;;4923283;29;20055;-47
2022/01/08 02:03:35;;;;;;;10.45;2.38;;;1.60;99.90;;;;;;4924085;29;20143;-47
2022/01/08 02:06:01;;;;;;;9.80;2.53;;;1.60;99.90;;;;;;4925564;29;20086;-47
2022/01/08 02:08:28;;;;;;;9.40;2.83;;;1.40;99.90;;;;;;4926569;29;20052;-47
2022/01/08 02:10:54;;;;;;;7.43;2.95;;;1.40;99.90;;;;;;4909788;29;20056;-48
2022/01/08 02:13:25;;;;;;;6.30;2.72;;;1.30;99.90;;;;;;4929333;29;20098;-49
2022/01/08 02:15:53;;;;;;;10.02;2.95;;;1.30;99.90;;;;;;4910450;29;20059;-48
2022/01/08 02:18:20;;;;;;;9.25;3.20;;;1.20;99.90;;;;;;4931892;29;20047;-47
2022/01/08 02:20:46;;;;;;;6.22;2.97;;;1.20;99.90;;;;;;4928169;29;20058;-49
2022/01/08 02:23:12;;;;;;;4.97;2.78;;;1.20;99.90;;;;;;4910942;29;20048;-48
2022/01/08 02:25:37;;;;;;;9.52;3.03;;;1.20;99.90;;;;;;4926963;29;20165;-47
2022/01/08 02:28:04;;;;;;;7.05;2.75;;;1.10;99.90;;;;;;4907846;29;20433;-49
2022/01/08 02:30:30;;;;;;;9.95;3.30;;;1.10;99.90;;;;;;4924316;29;20399;-48
2022/01/08 02:32:56;;;;;;;7.13;3.47;;;1.20;99.90;;;;;;4927070;29;20055;-47
2022/01/08 02:35:23;;;;;;;7.63;2.80;;;1.20;99.90;;;;;;4929396;29;20055;-49
2022/01/08 02:37:49;;;;;;;8.88;3.20;;;1.20;99.90;;;;;;4912763;29;20056;-48
2022/01/08 02:40:18;;;;;;;10.40;3.45;;;1.30;99.90;;;;;;4908810;29;20055;-47
2022/01/08 02:42:53;;;;;;;5.25;2.72;;;1.30;99.90;;;;;;4926899;29;20475;-47
2022/01/08 02:45:21;;;;;;;8.20;3.70;;;1.30;99.90;;;;;;4912773;29;20061;-47
2022/01/08 02:47:48;;;;;;;10.88;3.75;;;1.30;99.90;;;;;;4897717;29;20119;-48
2022/01/08 02:50:15;;;;;;;8.05;3.13;;;1.30;99.90;;;;;;4913050;29;20580;-47
2022/01/08 02:52:42;;;;;;;7.28;3.90;;;1.50;99.90;;;;;;4927085;29;20098;-48
2022/01/08 02:55:09;;;;;;;7.07;3.42;;;1.50;99.90;;;;;;4909637;29;20079;-50
2022/01/08 02:57:35;;;;;;;12.57;3.72;;;1.50;99.90;;;;;;4925831;29;20477;-47
2022/01/08 03:00:01;;;;;;;9.82;3.50;;;1.50;99.90;;;;;;4926506;29;20099;-47
2022/01/08 03:02:26;;;;;;;11.57;3.50;;;1.50;99.90;;;;;;4909977;29;20052;-47
2022/01/08 03:04:54;;;;;;;10.88;3.40;;;1.40;99.90;;;;;;4910354;29;20047;-48
2022/01/08 03:07:20;;;;;;;8.77;3.40;;;1.40;99.90;;;;;;4926151;29;20530;-48
2022/01/08 03:09:55;;;;;;;7.22;2.72;;;1.40;99.90;;;;;;4910137;29;20047;-47
2022/01/08 03:12:20;;;;;;;6.68;3.50;;;1.30;99.90;;;;;;4909391;29;20134;-48
2022/01/08 03:14:46;;;;;;;7.65;2.85;;;1.40;99.90;;;;;;4927085;29;20062;-47
2022/01/08 03:17:12;;;;;;;6.40;2.85;;;1.40;99.90;;;;;;4925486;29;20621;-48
2022/01/08 03:19:39;;;;;;;9.65;3.20;;;1.50;99.90;;;;;;4923011;29;20090;-48
2022/01/08 03:22:05;;;;;;;8.95;2.63;;;1.40;99.90;;;;;;4925960;29;20051;-47
2022/01/08 03:24:31;;;;;;;5.55;2.67;;;1.50;99.90;;;;;;4910852;29;20158;-47
2022/01/08 03:26:57;;;;;;;6.63;2.55;;;1.60;99.90;;;;;;4930404;29;20535;-48
2022/01/08 03:29:23;;;;;;;6.05;2.33;;;1.60;99.90;;;;;;4925506;29;20059;-48
2022/01/08 03:31:49;;;;;;;6.18;2.40;;;1.60;99.90;;;;;;4926679;29;20467;-47
2022/01/08 03:34:15;;;;;;;4.05;2.80;;;1.60;99.90;;;;;;4926188;29;20055;-47
2022/01/08 03:36:41;;;;;;;9.60;2.10;;;1.60;99.90;;;;;;4927801;29;20158;-49
2022/01/08 03:39:07;;;;;;;7.90;2.00;;;1.60;99.90;;;;;;4906312;29;20047;-48
2022/01/08 03:41:33;;;;;;;9.77;2.58;;;1.50;99.90;;;;;;4889218;29;20055;-47
2022/01/08 03:43:58;;;;;;;5.32;2.00;;;1.60;99.90;;;;;;4927932;29;20086;-46
2022/01/08 03:46:28;;;;;;;3.85;1.83;;;1.40;99.90;;;;;;4927438;29;20166;-47
2022/01/08 03:51:29;;;;;;;8.55;1.80;;;1.40;99.90;;;;;;4929605;29;20062;-47
2022/01/08 03:53:57;;;;;;;8.65;2.00;;;1.40;99.90;;;;;;4910903;29;20399;-47
2022/01/08 03:56:23;;;;;;;7.03;2.08;;;1.40;99.90;;;;;;4908373;29;20058;-47
2022/01/08 03:58:49;;;;;;;9.30;3.35;;;1.40;99.90;;;;;;4933201;29;20172;-47
2022/01/08 04:01:15;;;;;;;9.73;3.00;;;1.50;99.90;;;;;;4896603;29;20186;-47
2022/01/08 04:03:41;;;;;;;7.97;2.85;;;1.60;99.90;;;;;;4929723;29;20051;-47
2022/01/08 04:06:07;;;;;;;7.30;2.75;;;1.60;99.90;;;;;;4926816;29;20051;-48
2022/01/08 04:08:33;;;;;;;9.77;3.08;;;1.60;99.90;;;;;;4933704;29;20097;-47
2022/01/08 04:10:59;;;;;;;9.35;2.80;;;1.60;99.90;;;;;;4935243;29;20616;-48
2022/01/08 04:13:28;;;;;;;11.52;3.20;;;1.60;99.90;;;;;;4937588;29;20566;-48
2022/01/08 04:16:00;;;;;;;6.60;2.55;;;1.60;99.90;;;;;;4936178;29;20050;-47
2022/01/08 04:18:26;;;;;;;10.85;2.83;;;1.60;99.90;;;;;;4928685;29;20520;-47
2022/01/08 04:23:36;;;;;;;6.80;2.60;;;1.60;99.90;;;;;;4915115;29;20098;-50
2022/01/08 04:26:02;;;;;;;10.85;3.47;;;1.60;99.90;;;;;;4932240;29;20916;-47
2022/01/08 04:28:29;;;;;;;7.95;2.88;;;1.60;99.90;;;;;;4927913;29;20043;-51
2022/01/08 04:30:55;;;;;;;9.88;2.83;;;1.60;99.90;;;;;;4922891;29;20052;-50
2022/01/08 04:33:20;;;;;;;12.20;3.38;;;1.70;99.90;;;;;;4928651;29;20062;-49
2022/01/08 04:35:46;;;;;;;13.90;3.28;;;1.70;99.90;;;;;;4910266;29;20059;-51
2022/01/08 04:38:12;;;;;;;9.20;3.03;;;1.60;99.90;;;;;;4931103;29;20051;-50
2022/01/08 04:40:39;;;;;;;7.65;2.83;;;1.60;99.90;;;;;;4925281;29;20074;-49
2022/01/08 04:43:10;;;;;;;7.28;2.70;;;1.50;99.90;;;;;;4924819;29;20055;-47
2022/01/08 04:45:36;;;;;;;6.65;3.65;;;1.40;99.90;;;;;;4907073;29;20103;-47
2022/01/08 04:48:01;;;;;;;10.52;3.00;;;1.40;99.90;;;;;;4924897;29;20055;-48
2022/01/08 04:50:28;;;;;;;9.70;2.78;;;1.30;99.90;;;;;;4925000;29;20051;-47
2022/01/08 04:52:55;;;;;;;8.98;3.03;;;1.30;99.90;;;;;;4924293;29;20356;-49
2022/01/08 04:55:22;;;;;;;7.57;2.83;;;1.20;99.90;;;;;;4907193;29;20134;-49
2022/01/08 04:57:48;;;;;;;7.80;2.60;;;1.20;99.90;;;;;;4913927;29;20145;-48
2022/01/08 05:00:19;;;;;;;11.80;3.38;;;1.10;99.90;;;;;;4929349;29;20087;-47
2022/01/08 05:02:45;;;;;;;12.23;3.45;;;0.90;99.90;;;;;;4924776;29;20056;-48
2022/01/08 05:05:11;;;;;;;10.82;3.78;;;1.00;99.90;;;;;;4924157;29;20128;-48
2022/01/08 05:07:38;;;;;;;8.88;3.50;;;0.90;99.90;;;;;;4925080;29;20047;-47
2022/01/08 05:10:04;;;;;;;13.70;3.67;;;0.90;99.90;;;;;;4930042;29;20334;-47
2022/01/08 05:12:30;;;;;;;9.60;3.55;;;0.80;99.90;;;;;;4924604;29;20175;-48
2022/01/08 05:14:56;;;;;;;14.35;3.80;;;0.80;99.90;;;;;;4923761;29;20052;-48
2022/01/08 05:17:28;;;;;;;8.38;3.50;;;0.70;99.90;;;;;;4912090;29;20569;-49
2022/01/08 05:19:56;;;;;;;8.57;3.10;;;0.70;99.90;;;;;;4910930;29;20052;-47
2022/01/08 05:22:28;;;;;;;10.48;3.63;;;0.60;99.90;;;;;;4910941;29;20274;-47
2022/01/08 05:24:55;;;;;;;14.75;4.68;;;0.50;99.90;;;;;;4907311;29;20075;-48
2022/01/08 05:27:21;;;;;;;11.88;3.28;;;0.50;99.90;;;;;;4919690;29;20534;-47
2022/01/08 05:29:49;;;;;;;12.40;3.97;;;0.50;99.90;;;;;;4890164;29;20463;-47
2022/01/08 05:32:16;;;;;;;10.73;3.80;;;0.60;99.90;;;;;;4893057;29;20055;-49
2022/01/08 05:34:45;;;;;;;14.52;3.88;;;0.50;99.90;;;;;;4904596;29;20055;-48
2022/01/08 05:37:11;;;;;;;12.38;3.78;;;0.50;99.90;;;;;;4921054;29;20055;-47
2022/01/08 05:39:38;;;;;;;11.55;3.88;;;0.40;99.90;;;;;;4921717;29;20123;-47
2022/01/08 05:42:04;;;;;;;6.82;3.40;;;0.40;99.90;;;;;;4918156;29;20098;-49
2022/01/08 05:44:30;;;;;;;10.88;4.25;;;0.40;99.90;;;;;;4943499;29;20058;-47
2022/01/08 05:46:56;;;;;;;13.32;4.03;;;0.40;99.90;;;;;;4930748;29;20040;-50
2022/01/08 05:49:21;;;;;;;10.90;3.90;;;0.30;99.90;;;;;;4943660;29;20051;-47
2022/01/08 05:51:47;;;;;;;12.18;3.63;;;0.30;99.90;;;;;;4942661;29;20541;-47
2022/01/08 05:54:13;;;;;;;11.10;4.03;;;0.30;99.90;;;;;;4934274;29;20051;-48
2022/01/08 05:56:38;;;;;;;10.60;3.70;;;0.30;99.90;;;;;;4917001;29;20162;-49
2022/01/08 05:59:05;;;;;;;10.50;4.43;;;0.20;99.90;;;;;;4918524;29;20368;-48
2022/01/08 06:01:33;;;;;;;10.85;3.88;;;0.20;99.90;;;;;;4927237;29;20130;-47
2022/01/08 06:04:03;;;;;;;15.85;4.13;;;0.20;99.90;;;;;;4937101;29;20059;-48
2022/01/08 06:06:29;;;;;;;12.20;3.83;;;0.20;99.90;;;;;;4943471;29;20055;-49
2022/01/08 06:08:55;;;;;;;11.90;3.83;;;0.20;99.90;;;;;;4943531;29;20117;-47
2022/01/08 06:11:21;;;;;;;13.52;4.43;;;0.20;99.90;;;;;;4942491;29;20051;-49
2022/01/08 06:13:46;;;;;;;11.85;3.97;;;0.10;99.90;;;;;;4943231;29;20051;-47
2022/01/08 06:16:12;;;;;;;14.27;3.88;;;0.10;99.90;;;;;;4909180;29;20055;-48
2022/01/08 06:18:39;;;;;;;15.02;4.65;;;0.10;99.90;;;;;;4942335;29;20058;-49
2022/01/08 06:21:05;;;;;;;18.92;5.38;;;0.10;99.90;;;;;;4943489;29;20560;-48
2022/01/08 06:23:32;;;;;;;14.45;4.75;;;0.10;99.90;;;;;;4943614;29;20062;-47
2022/01/08 06:25:57;;;;;;;15.30;4.53;;;0.10;99.90;;;;;;4925859;29;20063;-48
2022/01/08 06:28:23;;;;;;;13.93;5.07;;;0.00;99.90;;;;;;4930703;29;20115;-49
2022/01/08 06:30:49;;;;;;;22.95;5.28;;;0.00;99.90;;;;;;4922162;29;20118;-49
2022/01/08 06:33:16;;;;;;;17.70;5.22;;;0.10;99.90;;;;;;4922997;29;20059;-49
2022/01/08 06:35:42;;;;;;;15.65;5.00;;;0.10;99.90;;;;;;4922687;29;20114;-47
2022/01/08 06:38:07;;;;;;;16.40;4.60;;;0.00;99.90;;;;;;4927598;29;20062;-47
2022/01/08 06:40:33;;;;;;;16.13;4.57;;;0.00;99.90;;;;;;4927684;29;20051;-47
2022/01/08 06:42:59;;;;;;;11.35;3.92;;;0.00;99.90;;;;;;4923899;29;20079;-49
2022/01/08 06:45:25;;;;;;;13.40;4.50;;;-0.10;99.90;;;;;;4917149;29;20899;-47
2022/01/08 06:47:51;;;;;;;16.98;5.10;;;0.00;99.90;;;;;;4910616;29;20178;-49
2022/01/08 06:50:16;;;;;;;17.58;6.15;;;-0.10;99.90;;;;;;4922676;29;20043;-48
2022/01/08 06:52:42;;;;;;;12.90;4.95;;;-0.10;99.90;;;;;;4923161;29;20135;-49
2022/01/08 06:55:08;;;;;;;17.05;5.00;;;-0.10;99.90;;;;;;4908437;29;20135;-47
2022/01/08 06:57:34;;;;;;;15.93;4.85;;;-0.20;99.90;;;;;;4932821;29;20051;-48
2022/01/08 07:00:02;;;;;;;19.58;5.90;;;-0.20;99.90;;;;;;4926363;29;20059;-47
2022/01/08 07:02:28;;;;;;;17.58;4.93;;;-0.30;99.90;;;;;;4907381;29;20139;-47
2022/01/08 07:04:53;;;;;;;14.10;4.68;;;-0.30;99.90;;;;;;4933688;29;20043;-46
2022/01/08 07:07:19;;;;;;;15.20;5.78;;;-0.20;99.90;;;;;;4926328;29;20162;-50
2022/01/08 07:09:45;;;;;;;12.52;4.45;;;-0.20;99.90;;;;;;4932182;29;20375;-47
2022/01/08 07:12:11;;;;;;;14.07;5.20;;;-0.10;99.90;;;;;;4932982;29;20526;-49
2022/01/08 07:14:36;;;;;;;14.35;6.03;;;-0.10;99.90;;;;;;4939581;29;20049;-48
2022/01/08 07:17:02;;;;;;;12.23;5.45;;;-0.10;99.90;;;;;;4926302;29;20670;-48
2022/01/08 07:19:28;;;;;;;13.70;4.93;;;-0.10;99.90;;;;;;4926378;29;20443;-46
2022/01/08 07:21:54;;;;;;;17.23;5.03;;;0.00;99.90;;;;;;4913694;29;20043;-47
2022/01/08 07:24:20;;;;;;;20.30;5.72;;;0.00;99.90;;;;;;4932296;29;20167;-47
2022/01/08 07:26:45;;;;;;;18.95;5.10;;;0.10;99.90;;;;;;4927410;29;20522;-47
2022/01/08 07:29:11;;;;;;;12.20;4.93;;;0.10;99.90;;;;;;4936778;29;20081;-48
2022/01/08 07:31:37;;;;;;;12.15;4.50;;;0.10;99.90;;;;;;4925597;29;20510;-47
2022/01/08 07:34:04;;;;;;;16.85;4.70;;;0.20;99.90;;;;;;4926712;29;20346;-47
2022/01/08 07:36:29;;;;;;;20.13;4.85;;;0.20;99.90;;;;;;4932752;29;20499;-48
2022/01/08 07:38:55;;;;;;;11.20;4.38;;;0.20;99.90;;;;;;4920601;29;20149;-48
2022/01/08 07:41:21;;;;;;;12.68;4.47;;;0.20;99.90;;;;;;4927148;29;20103;-47
2022/01/08 07:43:47;;;;;;;21.95;5.30;;;0.30;99.90;;;;;;4917252;29;20381;-47
2022/01/08 07:46:12;;;;;;;12.90;4.72;;;0.30;99.90;;;;;;4927024;29;20048;-48
2022/01/08 07:48:40;;;;;;;14.40;4.68;;;0.30;99.90;;;;;;4928857;29;20126;-47
2022/01/08 07:51:06;;;;;;;11.80;4.97;;;0.30;99.90;;;;;;4927096;29;20795;-50
2022/01/08 07:53:32;;;;;;;11.00;4.95;;;0.30;99.90;;;;;;4931377;29;20135;-49
2022/01/08 07:55:58;;;;;;;10.20;4.38;;;0.30;99.90;;;;;;4928264;29;20110;-51
2022/01/08 07:58:24;;;;;;;10.60;5.18;;;0.30;99.90;;;;;;4907183;29;20059;-54
2022/01/08 08:00:50;;;;;;;12.77;4.63;;;0.30;99.90;;;;;;4907325;29;20098;-49
2022/01/08 08:03:17;;;;;;;10.18;4.57;;;0.30;99.90;;;;;;4926742;29;20050;-48
2022/01/08 08:05:45;;;;;;;12.55;5.18;;;0.40;99.90;;;;;;4906483;29;20051;-50
2022/01/08 08:08:21;;;;;;;16.80;4.95;;;0.40;99.90;;;;;;4929273;29;20174;-49
2022/01/08 08:10:49;;;;;;;16.15;4.82;;;0.40;99.90;;;;;;4926896;29;20138;-49
2022/01/08 08:13:20;;;;;;;15.18;5.45;;;0.50;99.90;;;;;;4925821;29;20054;-48
2022/01/08 08:15:46;;;;;;;18.55;6.03;;;0.50;99.90;;;;;;4902069;29;20059;-47
2022/01/08 08:18:12;;;;;;;17.60;6.25;;;0.60;99.90;;;;;;4907905;29;20199;-48
2022/01/08 08:20:41;;;;;;;17.77;6.82;;;0.70;99.90;;;;;;4907571;29;20055;-48
2022/01/08 08:23:07;;;;;;;19.67;7.88;;;0.80;99.90;;;;;;4905461;29;20060;-48
2022/01/08 08:25:33;;;;;;;17.95;7.10;;;0.90;99.90;;;;;;4909077;29;20403;-47
2022/01/08 08:27:59;;;;;;;14.45;7.53;;;0.90;99.90;;;;;;4924521;29;20051;-47
2022/01/08 08:30:25;;;;;;;17.88;7.60;;;1.00;99.90;;;;;;4894300;29;20048;-47
2022/01/08 08:32:50;;;;;;;14.82;6.10;;;1.00;99.90;;;;;;4924599;29;20482;-49
2022/01/08 08:35:17;;;;;;;14.23;6.88;;;1.10;99.90;;;;;;4908896;29;20079;-47
2022/01/08 08:37:43;;;;;;;19.25;6.88;;;1.10;99.90;;;;;;4925139;29;20459;-49
2022/01/08 08:40:12;;;;;;;18.42;6.80;;;1.20;99.90;;;;;;4926116;29;20637;-48
2022/01/08 08:42:38;;;;;;;20.05;7.28;;;1.20;99.90;;;;;;4927122;29;20131;-49
2022/01/08 08:45:08;;;;;;;15.10;6.60;;;1.30;99.90;;;;;;4928094;29;20043;-48
2022/01/08 08:47:34;;;;;;;14.40;5.85;;;1.30;99.90;;;;;;4928744;29;20579;-48
2022/01/08 08:50:01;;;;;;;25.55;7.25;;;1.40;99.90;;;;;;4911627;29;20047;-48
2022/01/08 08:52:26;;;;;;;14.68;7.10;;;1.40;99.90;;;;;;4927558;29;20089;-48
2022/01/08 08:54:52;;;;;;;12.52;5.97;;;1.40;99.90;;;;;;4926559;29;20131;-49
2022/01/08 08:57:19;;;;;;;19.67;5.68;;;1.50;99.90;;;;;;4925660;29;20048;-48
2022/01/08 08:59:45;;;;;;;16.33;6.15;;;1.50;99.90;;;;;;4929843;29;20421;-48
2022/01/08 09:02:11;;;;;;;13.98;5.63;;;1.60;99.90;;;;;;4927711;29;20578;-51
2022/01/08 09:04:38;;;;;;;13.75;4.72;;;1.50;99.90;;;;;;4926248;29;20063;-48
2022/01/08 09:07:04;;;;;;;11.73;5.75;;;1.60;99.90;;;;;;4935629;29;20058;-48
2022/01/08 09:09:30;;;;;;;12.70;5.07;;;1.50;99.90;;;;;;4892484;29;20759;-49
2022/01/08 09:11:56;;;;;;;19.95;6.00;;;1.60;99.90;;;;;;4935429;29;20039;-48
2022/01/08 09:14:22;;;;;;;9.90;4.75;;;1.60;99.90;;;;;;4911082;29;20054;-48
2022/01/08 09:16:51;;;;;;;17.17;5.20;;;1.70;99.90;;;;;;4933691;28;20107;-49
2022/01/08 09:19:18;;;;;;;14.32;4.65;;;1.60;99.90;;;;;;4907339;29;20195;-47
2022/01/08 09:21:44;;;;;;;13.77;5.18;;;1.70;99.90;;;;;;4924927;29;20139;-47
2022/01/08 09:24:18;;;;;;;13.60;5.32;;;1.70;99.90;;;;;;4929450;29;20126;-47
2022/01/08 09:26:45;;;;;;;12.02;4.70;;;1.70;99.90;;;;;;4923042;29;20067;-49
2022/01/08 09:29:10;;;;;;;16.35;4.95;;;1.70;99.90;;;;;;4934760;29;20448;-48
2022/01/08 09:31:38;;;;;;;17.23;5.20;;;1.80;99.90;;;;;;4924808;29;20138;-51
2022/01/08 09:34:04;;;;;;;11.43;5.45;;;1.80;99.90;;;;;;4906451;29;20383;-52
2022/01/08 09:36:31;;;;;;;12.10;4.88;;;1.80;99.90;;;;;;4906404;29;20095;-49
2022/01/08 09:38:57;;;;;;;15.02;4.95;;;1.90;99.90;;;;;;4891377;29;20110;-48
2022/01/08 09:41:23;;;;;;;12.75;4.78;;;1.90;99.90;;;;;;4924041;29;20051;-51
2022/01/08 09:43:49;;;;;;;13.52;4.85;;;1.90;99.90;;;;;;4925772;29;20503;-50
2022/01/08 09:46:15;;;;;;;15.13;4.10;;;2.00;99.90;;;;;;4925310;29;20052;-47
2022/01/08 09:48:42;;;;;;;14.57;5.22;;;2.00;99.90;;;;;;4915052;29;20059;-49
2022/01/08 09:51:09;;;;;;;11.77;4.53;;;2.00;99.90;;;;;;4935900;29;20507;-49
2022/01/08 09:53:36;;;;;;;14.30;5.22;;;2.10;99.90;;;;;;4924770;29;20059;-49
2022/01/08 09:56:03;;;;;;;22.92;5.90;;;2.10;99.90;;;;;;4904705;29;20060;-48
2022/01/08 09:58:28;;;;;;;13.75;5.70;;;2.10;99.90;;;;;;4924576;29;20058;-49
2022/01/08 10:00:54;;;;;;;15.25;6.10;;;2.20;99.90;;;;;;4908306;29;20059;-48
2022/01/08 10:03:23;;;;;;;12.82;6.55;;;2.20;99.90;;;;;;4922437;29;20130;-48
2022/01/08 10:05:50;;;;;;;16.42;6.20;;;2.20;99.90;;;;;;4927785;29;20044;-47
2022/01/08 10:08:23;;;;;;;14.70;6.28;;;2.30;99.90;;;;;;4926682;29;20467;-51
2022/01/08 10:10:59;;;;;;;14.20;7.20;;;2.30;99.90;;;;;;4929190;29;20122;-49
2022/01/08 10:13:29;;;;;;;15.73;6.30;;;2.40;99.90;;;;;;4925628;29;20068;-47
2022/01/08 10:18:42;;;;;;;24.50;8.02;;;2.50;99.90;;;;;;4923258;29;20062;-48
2022/01/08 10:21:20;;;;;;;16.08;6.95;;;2.50;99.90;;;;;;4905925;29;20063;-49
2022/01/08 10:24:04;;;;;;;17.63;7.65;;;2.50;99.90;;;;;;4924214;29;20047;-48
2022/01/08 10:26:34;;;;;;;14.15;7.22;;;2.50;99.90;;;;;;4905521;29;20055;-51
2022/01/08 10:29:02;;;;;;;13.50;7.80;;;2.50;99.90;;;;;;4925547;29;20063;-50
2022/01/08 10:31:31;;;;;;;14.98;7.03;;;2.60;99.90;;;;;;4927146;29;20264;-48
2022/01/08 10:34:02;;;;;;;16.45;8.63;;;2.60;99.90;;;;;;4922725;29;20149;-48
2022/01/08 10:36:41;;;;;;;18.50;8.93;;;2.60;99.90;;;;;;4930120;29;20135;-48
2022/01/08 10:39:10;;;;;;;14.05;8.57;;;2.70;99.90;;;;;;4931268;29;20131;-48
2022/01/08 10:41:46;;;;;;;15.70;8.43;;;2.70;99.90;;;;;;4927291;29;20499;-48
2022/01/08 10:44:17;;;;;;;15.73;9.32;;;2.70;99.90;;;;;;4928857;29;20108;-51
2022/01/08 10:46:57;;;;;;;17.55;8.10;;;2.80;99.90;;;;;;4931723;29;20055;-49
2022/01/08 10:49:36;;;;;;;18.65;8.50;;;2.80;99.90;;;;;;4910924;29;20047;-48
2022/01/08 10:52:05;;;;;;;17.90;7.90;;;2.80;99.90;;;;;;4923325;29;20265;-48
2022/01/08 10:54:33;;;;;;;15.30;8.68;;;2.90;99.90;;;;;;4932034;29;20392;-47
2022/01/08 10:57:03;;;;;;;17.83;8.60;;;2.90;99.90;;;;;;4931510;29;20052;-49
2022/01/08 10:59:30;;;;;;;14.63;8.93;;;2.90;99.90;;;;;;4913135;29;20422;-49
2022/01/08 11:02:05;;;;;;;22.38;10.07;;;2.90;99.90;;;;;;4926992;29;20128;-49
2022/01/08 11:04:40;;;;;;;20.38;8.73;;;2.90;99.90;;;;;;4928020;29;20415;-49
2022/01/08 11:07:07;;;;;;;15.90;9.23;;;2.90;99.90;;;;;;4927134;29;20264;-47
2022/01/08 11:09:36;;;;;;;21.27;8.60;;;2.90;99.90;;;;;;4927724;29;20388;-50
2022/01/08 11:12:04;;;;;;;17.25;9.27;;;2.90;99.90;;;;;;4928092;29;20056;-51
2022/01/08 11:15:01;;;;;;;15.80;8.65;;;2.90;99.90;;;;;;4929245;29;20043;-51
2022/01/08 11:17:37;;;;;;;14.68;9.30;;;3.00;99.90;;;;;;4918587;29;20070;-49
2022/01/08 11:20:16;;;;;;;20.58;10.30;;;3.00;99.90;;;;;;4928299;29;20199;-48
2022/01/08 11:22:47;;;;;;;21.00;9.52;;;3.10;99.90;;;;;;4910357;29;20063;-50
2022/01/08 11:25:16;;;;;;;22.48;9.27;;;3.10;99.90;;;;;;4928647;29;20094;-49
2022/01/08 11:28:03;;;;;;;17.95;9.52;;;3.20;99.90;;;;;;4920882;29;20047;-48
2022/01/08 11:30:35;;;;;;;26.15;10.38;;;3.10;99.90;;;;;;4906552;29;20137;-48
2022/01/08 11:33:08;;;;;;;19.52;11.05;;;3.20;99.90;;;;;;4913453;29;20060;-50
2022/01/08 11:35:37;;;;;;;20.00;10.75;;;3.20;99.90;;;;;;4921565;29;20060;-48
2022/01/08 11:38:07;;;;;;;16.15;9.88;;;3.20;99.90;;;;;;4926826;29;20419;-48
2022/01/08 11:40:35;;;;;;;19.42;9.88;;;3.30;99.90;;;;;;4909011;29;20059;-48
2022/01/08 11:43:03;;;;;;;18.50;9.43;;;3.30;99.90;;;;;;4926564;29;20134;-47
2022/01/08 11:45:40;;;;;;;17.55;9.80;;;3.30;99.90;;;;;;4904760;29;20055;-49
2022/01/08 11:48:09;;;;;;;17.63;10.98;;;3.30;99.90;;;;;;4931609;29;20058;-48
2022/01/08 11:50:37;;;;;;;18.98;10.23;;;3.30;99.90;;;;;;4933156;29;20458;-49
2022/01/08 11:56:28;;;;;;;23.40;12.70;;;3.30;99.90;;;;;;4929411;29;20113;-48
2022/01/08 11:59:11;;;;;;;20.08;12.98;;;3.30;99.90;;;;;;4926906;29;20051;-48
2022/01/08 12:01:43;;;;;;;22.13;12.75;;;3.30;99.90;;;;;;4927831;29;20115;-51
2022/01/08 12:04:31;;;;;;;18.33;12.05;;;3.30;99.90;;;;;;4929830;29;20622;-49
2022/01/08 12:06:57;;;;;;;20.40;11.65;;;3.30;99.90;;;;;;4927568;29;20558;-49
2022/01/08 12:09:24;;;;;;;21.58;13.73;;;3.30;99.90;;;;;;4915973;29;20313;-51
2022/01/08 12:11:50;;;;;;;17.75;13.18;;;3.30;99.90;;;;;;4924990;29;20463;-50
2022/01/08 12:14:40;;;;;;;21.35;14.45;;;3.40;99.90;;;;;;4933133;29;20597;-49
2022/01/08 12:17:20;;;;;;;19.13;14.18;;;3.40;99.90;;;;;;4926947;29;20063;-47
2022/01/08 12:19:55;;;;;;;23.45;15.60;;;3.30;99.90;;;;;;4907957;29;20423;-49
2022/01/08 12:22:21;;;;;;;18.67;14.50;;;3.30;99.90;;;;;;4929852;29;20071;-49
2022/01/08 12:24:53;;;;;;;21.55;14.45;;;3.30;99.90;;;;;;4897672;29;20062;-48
2022/01/08 12:27:40;;;;;;;20.80;14.63;;;3.40;99.90;;;;;;4931906;29;20450;-48
2022/01/08 12:30:18;;;;;;;21.83;14.45;;;3.40;99.90;;;;;;4930200;29;20090;-52
2022/01/08 12:32:50;;;;;;;24.40;13.68;;;3.40;99.90;;;;;;4926499;29;20052;-49
2022/01/08 12:35:20;;;;;;;20.70;15.82;;;3.40;99.90;;;;;;4920485;29;20146;-48
2022/01/08 12:37:59;;;;;;;23.42;16.48;;;3.40;99.90;;;;;;4907994;29;20598;-51
2022/01/08 12:40:31;;;;;;;26.73;16.92;;;3.40;99.90;;;;;;4905023;29;20052;-48
2022/01/08 12:42:58;;;;;;;28.10;17.95;;;3.40;99.90;;;;;;4911601;29;20491;-50
2022/01/08 12:45:31;;;;;;;25.02;17.40;;;3.50;99.90;;;;;;4908116;29;20063;-51
2022/01/08 12:48:00;;;;;;;;;;;3.50;99.90;;;;;;4926936;29;20055;-50
2022/01/08 12:50:36;;;;;;;19.98;14.07;;;3.50;99.90;;;;;;4925364;29;20302;-49
2022/01/08 12:53:08;;;;;;;19.55;13.88;;;3.50;99.90;;;;;;4933649;29;20055;-49
2022/01/08 12:55:56;;;;;;;20.73;13.95;;;3.50;99.90;;;;;;4914848;29;20055;-49
2022/01/08 12:58:26;;;;;;;16.92;14.23;;;3.50;99.90;;;;;;4907625;29;20147;-48
2022/01/08 13:00:55;;;;;;;22.88;14.73;;;3.50;99.90;;;;;;4925764;29;20090;-48
2022/01/08 13:03:25;;;;;;;19.60;14.98;;;3.50;99.90;;;;;;4894552;29;20523;-48
2022/01/08 13:05:52;;;;;;;18.70;13.68;;;3.50;99.90;;;;;;4933036;29;20057;-48
2022/01/08 13:08:23;;;;;;;20.10;14.55;;;3.50;99.90;;;;;;4937160;29;20058;-50
2022/01/08 13:11:00;;;;;;;19.00;14.95;;;3.50;99.90;;;;;;4932231;29;20075;-47
2022/01/08 13:13:26;;;;;;;20.00;16.10;;;3.50;99.90;;;;;;4914221;29;20055;-48
2022/01/08 13:15:53;;;;;;;20.05;15.25;;;3.50;99.90;;;;;;4935796;29;20059;-49
2022/01/08 13:18:21;;;;;;;20.67;14.52;;;3.50;99.90;;;;;;4911253;29;20499;-49
2022/01/08 13:21:00;;;;;;;21.08;15.98;;;3.50;99.90;;;;;;4927589;29;20057;-48
2022/01/08 13:23:26;;;;;;;23.00;16.20;;;3.50;99.90;;;;;;4892363;29;20296;-51